General Mariano Escobedo International Airport
MMMY : now visible

Airfield :











YOU CAN JOIN US ON...

 
LOGIN :

Register | Disclaimer

   EN    FR    IT 

 









Legend :    VFR   Marginal VFR   IFR   Intensive IFR   Very Intensive IFR
Visi :
Ceiling :
>= 8 km
>= 3000ft
5 to 8 km
1000 to 3000 ft
1500m to 5 km
500 to 1000 ft
800 to 1500m
200 to 500 ft
< 800m
< 200 ft
Symbols :   Thunderstorms  Fog  Heavy snow  Heavy precipitations  Wind > 20 kt






- Airport Elevation : 1278 ft
- IATA code : MTY


MMMY - General Mariano Escobedo International

CURRENT METAR :
  • 091640Z 27006KT 8SM SCT200 26/11 A2984 RMK 8/008 HZY

EXPIRED METARs :
  • 091540Z 29004KT 8SM SCT200 22/12 A2984 RMK 8/008 HZY
  • 091440Z 30007KT 10SM SCT200 18/12 A2984 RMK SLP/// 5//// 9// 8/008

TAF TAF MMMY
Valid from the 09 at 18:00 until the 11 at 00:00 UTC


091623Z 0918/1024 32005KT P6SM SCT220 TX30/0922Z TN15/1013Z
BECMG 0920/0921 09012KT
FM100200 12005KT P6SM SCT220
BECMG 1005/1006 32005KT
FM101000 32015KT 6SM HZ SCT020 SCT220
BECMG 1015/1016 34020KT SCT220
FM102000 36015KT P6SM SCT030



MET'MAP, your aeronautical weather chart ! - Copyright ORBIFLY December 2007 - Disclaimer

ORBIFLY MET'MAP TEAM :

Programming & Development : Alexandra Zaïnal
Concept & original design : Baudouin d'Aumeries
Assistance for programming : Marc-Olivier Méhu
Technical & hardware support : Manuel Goepfert

Contact : metmap@orbifly.com




SOURCES & CREDITS :

   NOAA       Earth
Advisory